ADDS METAR Data INFO
IDs: Format: Raw Decoded Include TAF

Data at: 1022 UTC 12 Dec 2017

KEDJ 121015Z AUTO 33009G18KT 4SM FEW010 SCT015 OVC021 M02/M02 A2975 RMK AO1
KEDJ 120955Z AUTO 32011G22KT 4SM BKN008 BKN015 OVC021 M02/M02 A2975 RMK AO1
KEDJ 120935Z AUTO 33013G19KT 4SM BKN006 OVC010 M01/M01 A2974 RMK AO1
KEDJ 120915Z AUTO 33013G21KT 3SM BKN005 M01/M01 A2973 RMK AO1
KEDJ 120855Z AUTO 31012G16KT 1 3/4SM BKN002 M01/M01 A2973 RMK AO1
KEDJ 120835Z AUTO 29008KT 1 3/4SM BKN002 M02/M02 A2972 RMK AO1
KEDJ 120815Z AUTO 29009KT 1 3/4SM BKN003 M02/M02 A2972 RMK AO1
KEDJ 120755Z AUTO 30008KT 4SM BKN005 M02/M02 A2971 RMK AO1
KEDJ 120735Z AUTO 31010G15KT 6SM BKN006 M02/M02 A2971 RMK AO1
KEDJ 120715Z AUTO 31011G16KT 7SM BKN008 OVC012 M02/M02 A2970 RMK AO1
KEDJ 120655Z AUTO 32011G16KT 5SM BKN012 M01/M02 A2969 RMK AO1
KEDJ 120635Z AUTO 32010KT 4SM BKN016 00/M02 A2968 RMK AO1
KEDJ 120615Z AUTO 31013G20KT 10SM SCT020 OVC044 00/M03 A2967 RMK AO1
KEDJ 120555Z AUTO 29013G18KT 10SM OVC044 01/M02 A2966 RMK AO1
KEDJ 120535Z AUTO 28011G20KT 10SM OVC044 02/M03 A2964 RMK AO1
KEDJ 120515Z AUTO 28015G19KT 10SM OVC044 02/M03 A2963 RMK AO1
KEDJ 120455Z AUTO 27012KT 10SM OVC048 02/M03 A2962 RMK AO1
KEDJ 120435Z AUTO 25009KT 10SM BKN048 02/M02 A2962 RMK AO1
KEDJ 120415Z AUTO 23009KT 10SM CLR 00/M03 A2962 RMK AO1
KEDJ 120355Z AUTO 21008KT 10SM CLR 00/M03 A2961 RMK AO1
KEDJ 120335Z AUTO 18011KT 10SM CLR 00/M03 A2961 RMK AO1
KEDJ 120315Z AUTO 17009KT 10SM CLR 01/M03 A2962 RMK AO1
KEDJ 120255Z AUTO 19009KT 10SM SCT065 02/M03 A2964 RMK AO1
KEDJ 120235Z AUTO 17012G18KT 10SM SCT065 02/M03 A2964 RMK AO1
KEDJ 120215Z AUTO 16011KT 10SM FEW065 SCT070 01/M03 A2964 RMK AO1
KEDJ 120155Z AUTO 16010KT 10SM BKN065 01/M03 A2965 RMK AO1
KEDJ 120135Z AUTO 15010KT 10SM FEW065 00/M03 A2966 RMK AO1
KEDJ 120115Z AUTO 15011KT 10SM CLR 00/M03 A2967 RMK AO1
KEDJ 120055Z AUTO 16010KT 10SM CLR 00/M03 A2969 RMK AO1
KEDJ 120035Z AUTO 16010KT 10SM CLR 00/M03 A2970 RMK AO1
KEDJ 120015Z AUTO 16010KT 10SM CLR 00/M03 A2971 RMK AO1
KEDJ 112355Z AUTO 16010KT 10SM CLR 00/M03 A2972 RMK AO1
KEDJ 112335Z AUTO 16010KT 10SM CLR 00/M03 A2972 RMK AO1
KEDJ 112315Z AUTO 17011KT 10SM CLR 00/M03 A2974 RMK AO1
KEDJ 112255Z AUTO 16011KT 10SM CLR 00/M03 A2973 RMK AO1
KEDJ 112235Z AUTO 15010KT 10SM CLR 00/M03 A2974 RMK AO1
KEDJ 112215Z AUTO 16009KT 10SM CLR 00/M03 A2976 RMK AO1
KEDJ 112155Z AUTO 16008KT 10SM CLR 00/M03 A2977 RMK AO1
KEDJ 112135Z AUTO 15007KT 10SM CLR 00/M03 A2978 RMK AO1
KEDJ 112115Z AUTO 15009KT 10SM CLR 00/M03 A2979 RMK AO1
KEDJ 112055Z AUTO 16009KT 10SM CLR 00/M04 A2980 RMK AO1
KEDJ 112035Z AUTO 17009KT 10SM CLR 00/M04 A2981 RMK AO1
KEDJ 112015Z AUTO 18007KT 10SM CLR 00/M04 A2982 RMK AO1
KEDJ 111955Z AUTO 18010KT 10SM CLR 00/M04 A2984 RMK AO1
KEDJ 111935Z AUTO 19008KT 10SM CLR 01/M04 A2985 RMK AO1
KEDJ 111855Z AUTO 19011KT 10SM FEW090 00/M04 A2986 RMK AO1
KEDJ 111835Z AUTO 19010KT 10SM FEW090 00/M04 A2987 RMK AO1
KEDJ 111815Z AUTO 19009KT 10SM CLR 00/M04 A2989 RMK AO1
KEDJ 111755Z AUTO 19012KT 10SM CLR 00/M04 A2991 RMK AO1
KEDJ 111735Z AUTO 18012KT 10SM CLR 00/M04 A2991 RMK AO1
KEDJ 111715Z AUTO 21012KT 10SM CLR 00/M05 A2993 RMK AO1
KEDJ 111655Z AUTO 19013G17KT 10SM CLR 00/M05 A2994 RMK AO1
KEDJ 111635Z AUTO 18013KT 10SM CLR M01/M05 A2996 RMK AO1
KEDJ 111615Z AUTO 20011KT 10SM CLR M01/M05 A2997 RMK AO1
KEDJ 111555Z AUTO 18012G15KT 10SM FEW065 M02/M05 A2998 RMK AO1
KEDJ 111535Z AUTO 20011KT 10SM CLR M02/M06 A2999 RMK AO1
KEDJ 111515Z AUTO 18010KT 10SM CLR M02/M05 A2999 RMK AO1
KEDJ 111455Z AUTO 20010KT 10SM CLR M02/M06 A3001 RMK AO1
KEDJ 111435Z AUTO 19006KT 10SM CLR M02/M06 A3002 RMK AO1
KEDJ 111415Z AUTO 21006KT 10SM SCT024 M03/M06 A3004 RMK AO1
KEDJ 111355Z AUTO 20006KT 10SM BKN024 M03/M05 A3005 RMK AO1
KEDJ 111335Z AUTO 20006KT 10SM BKN024 M03/M06 A3004 RMK AO1
KEDJ 111315Z AUTO 22004KT 10SM OVC024 M03/M06 A3005 RMK AO1
KEDJ 111255Z AUTO 18004KT 10SM OVC024 M03/M06 A3004 RMK AO1
KEDJ 111235Z AUTO 19004KT 10SM OVC024 M03/M06 A3005 RMK AO1
KEDJ 111215Z AUTO 19004KT 10SM OVC024 M03/M05 A3005 RMK AO1
KEDJ 111155Z AUTO 18004KT 10SM OVC024 M03/M05 A3004 RMK AO1
KEDJ 111135Z AUTO 20003KT 10SM OVC024 M03/M05 A3005 RMK AO1
KEDJ 111115Z AUTO 17003KT 10SM BKN024 M03/M05 A3005 RMK AO1
KEDJ 111055Z AUTO 00000KT 10SM OVC024 M03/M05 A3004 RMK AO1
KEDJ 111035Z AUTO 00000KT 10SM OVC022 M03/M05 A3005 RMK AO1
KEDJ 111015Z AUTO 00000KT 10SM OVC022 M03/M05 A3004 RMK AO1
KEDJ 110955Z AUTO 00000KT 10SM OVC022 M03/M05 A3004 RMK AO1
KEDJ 110935Z AUTO 31003KT 10SM OVC022 M03/M05 A3005 RMK AO1
KEDJ 110915Z AUTO 31003KT 10SM OVC022 M03/M05 A3005 RMK AO1
KEDJ 110855Z AUTO 30003KT 10SM OVC022 M03/M05 A3005 RMK AO1
KEDJ 110835Z AUTO 30003KT 10SM OVC024 M02/M05 A3004 RMK AO1
KEDJ 110815Z AUTO 32006KT 10SM OVC024 M02/M05 A3004 RMK AO1
KEDJ 110755Z AUTO 32005KT 10SM OVC022 M02/M05 A3004 RMK AO1
KEDJ 110735Z AUTO 32007KT 10SM OVC020 M02/M05 A3004 RMK AO1
KEDJ 110715Z AUTO 32006KT 10SM OVC020 M02/M05 A3004 RMK AO1
KEDJ 110655Z AUTO 33009KT 10SM OVC022 M02/M05 A3004 RMK AO1
KEDJ 110635Z AUTO 32009KT 10SM OVC020 M02/M05 A3003 RMK AO1
KEDJ 110615Z AUTO 31010G17KT 10SM OVC020 M02/M05 A3002 RMK AO1
KEDJ 110555Z AUTO 32010G17KT 10SM OVC020 M02/M05 A3002 RMK AO1
KEDJ 110535Z AUTO 32010KT 10SM BKN022 OVC026 M02/M05 A3002 RMK AO1
KEDJ 110515Z AUTO 31011G14KT 10SM OVC028 M02/M05 A3001 RMK AO1
KEDJ 110455Z AUTO 32008KT 10SM OVC028 M02/M05 A3000 RMK AO1
KEDJ 110435Z AUTO 31012G17KT 10SM OVC030 M02/M05 A2999 RMK AO1
KEDJ 110415Z AUTO 31010KT 10SM OVC032 M01/M05 A2999 RMK AO1
KEDJ 110355Z AUTO 29007KT 10SM OVC032 M01/M05 A2998 RMK AO1
KEDJ 110335Z AUTO 26007KT 10SM BKN034 M01/M05 A2998 RMK AO1
KEDJ 110315Z AUTO 25011KT 10SM OVC034 M01/M06 A2998 RMK AO1
KEDJ 110255Z AUTO 25009KT 10SM OVC036 M01/M06 A2997 RMK AO1
KEDJ 110235Z AUTO 25008KT 10SM OVC036 M01/M06 A2997 RMK AO1
KEDJ 110215Z AUTO 23009KT 10SM OVC038 M02/M06 A2998 RMK AO1
KEDJ 110155Z AUTO 22012KT 10SM OVC038 M01/M07 A2997 RMK AO1
KEDJ 110135Z AUTO 22010KT 10SM OVC038 M02/M07 A2997 RMK AO1
KEDJ 110115Z AUTO 21009KT 10SM OVC038 M02/M07 A2996 RMK AO1
KEDJ 110055Z AUTO 21008KT 10SM OVC038 M02/M07 A2997 RMK AO1
KEDJ 110035Z AUTO 21007KT 10SM OVC038 M02/M07 A2998 RMK AO1
KEDJ 110015Z AUTO 21006KT 10SM OVC038 M02/M07 A2998 RMK AO1
KEDJ 102355Z AUTO 21006KT 10SM OVC040 M03/M07 A2997 RMK AO1
KEDJ 102335Z AUTO 22007KT 10SM OVC040 M03/M07 A2998 RMK AO1
KEDJ 102315Z AUTO 23006KT 10SM OVC040 M03/M07 A2998 RMK AO1
KEDJ 102255Z AUTO 23007KT 10SM OVC042 M03/M07 A2998 RMK AO1
KEDJ 102235Z AUTO 23007KT 10SM OVC042 M03/M07 A2996 RMK AO1